Terminal Aerodrome Forecast
Issued by NWS Charleston, WV

Current Version | Previous Version | Graphics & Text | Print | Product List | Glossary On
Versions: 1 2 3 4 5 6 7 8 9 10 11 12 13 14 15 16 17 18 19 20 21 22 23
545
FTUS41 KRLX 212329
TAFPKB
TAF
KPKB 212329Z 2200/2224 22006KT P6SM FEW250
     FM220500 27006KT P6SM BKN100
     FM220900 31007KT P6SM BKN017
     FM221100 31006KT P6SM SCT021
     FM222000 33005KT P6SM SCT250=

USA.gov is the U.S. government's official web portal to all federal, state and local government web resources and services.